Time;durP1;ratioP1;P1;durP2;ratioP2;P2;SDS_P1;SDS_P2;PMS_P1;PMS_P2;Temp;Humidity;BMP_temperature;BMP_pressure;BME280_temperature;BME280_humidity;BME280_pressure;Samples;Min_cycle;Max_cycle;Signal;HPM_P1;HPM_P2
2022/01/01 00:02:02;;;;;;;;;11.50;10.00;;;;;13.70;82.05;100552.50;5091432;28;8830;-58
2022/01/01 00:04:49;;;;;;;;;14.00;13.50;;;;;13.67;81.63;100545.56;5089817;28;8845;-58
2022/01/01 00:07:17;;;;;;;;;15.75;15.50;;;;;13.69;81.80;100540.09;5089526;28;8990;-58
2022/01/01 00:09:44;;;;;;;;;17.00;15.00;;;;;13.67;81.97;100547.41;5088793;28;8845;-58
2022/01/01 00:12:13;;;;;;;;;8.25;8.25;;;;;13.67;81.40;100547.41;5090388;28;8852;-57
2022/01/01 00:14:40;;;;;;;;;11.50;9.00;;;;;13.69;82.13;100542.75;5091439;28;8841;-57
2022/01/01 00:17:09;;;;;;;;;12.25;12.00;;;;;13.66;81.66;100543.88;5090290;28;8850;-58
2022/01/01 00:19:38;;;;;;;;;12.00;10.00;;;;;13.65;82.11;100547.53;5090878;28;8853;-57
2022/01/01 00:22:07;;;;;;;;;9.25;7.00;;;;;13.65;82.32;100549.34;5089519;28;8865;-57
2022/01/01 00:24:35;;;;;;;;;13.00;13.00;;;;;13.64;82.26;100553.00;5091461;28;8846;-57
2022/01/01 00:27:02;;;;;;;;;13.75;13.50;;;;;13.63;82.35;100551.28;5090848;28;8842;-58
2022/01/01 00:29:30;;;;;;;;;16.75;16.25;;;;;13.63;82.36;100548.63;5090900;28;8881;-58
2022/01/01 00:31:57;;;;;;;;;9.75;9.25;;;;;13.63;82.27;100551.28;5091391;28;8954;-58
2022/01/01 00:34:26;;;;;;;;;14.50;12.50;;;;;13.63;82.07;100556.66;5090384;28;9153;-58
2022/01/01 00:36:54;;;;;;;;;11.00;9.75;;;;;13.62;82.31;100557.63;5089897;28;8858;-58
2022/01/01 00:39:22;;;;;;;;;15.25;14.50;;;;;13.62;82.02;100566.53;5089272;28;8868;-57
2022/01/01 00:41:49;;;;;;;;;12.75;12.00;;;;;13.61;82.25;100563.97;5089320;28;8919;-57
2022/01/01 00:44:17;;;;;;;;;8.50;7.50;;;;;13.61;82.15;100561.28;5091135;28;8858;-58
2022/01/01 00:46:45;;;;;;;;;15.00;13.75;;;;;13.60;82.06;100556.91;5089732;28;8842;-57
2022/01/01 00:49:13;;;;;;;;;11.00;10.50;;;;;13.60;81.75;100554.22;5090087;28;8830;-57
2022/01/01 00:51:41;;;;;;;;;13.50;11.50;;;;;13.59;82.35;100565.91;5088826;28;8846;-58
2022/01/01 00:54:09;;;;;;;;;12.75;12.00;;;;;13.58;82.18;100553.53;5090283;28;8856;-58
2022/01/01 00:56:38;;;;;;;;;20.50;17.75;;;;;13.57;82.10;100549.97;5089545;28;8893;-57
2022/01/01 00:59:05;;;;;;;;;10.50;9.50;;;;;13.57;82.15;100549.97;5090746;28;8858;-57
2022/01/01 01:01:33;;;;;;;;;9.25;8.25;;;;;13.56;82.33;100555.44;5089875;28;8846;-57
2022/01/01 01:04:01;;;;;;;;;14.50;12.50;;;;;13.55;82.13;100559.97;5089857;28;8850;-58
2022/01/01 01:06:29;;;;;;;;;14.00;11.50;;;;;13.54;82.13;100557.41;5090415;28;8862;-57
2022/01/01 01:08:59;;;;;;;;;17.00;13.50;;;;;13.52;82.26;100562.88;5090072;28;9492;-57
2022/01/01 01:11:26;;;;;;;;;14.50;12.75;;;;;13.51;82.15;100563.84;5090659;28;8838;-58
2022/01/01 01:13:58;;;;;;;;;10.00;9.50;;;;;13.52;82.22;100568.22;5091491;28;8888;-57
2022/01/01 01:16:26;;;;;;;;;12.25;11.00;;;;;13.52;82.18;100570.06;5091131;28;9628;-58
2022/01/01 01:18:54;;;;;;;;;12.75;12.00;;;;;13.52;82.63;100572.75;5090633;28;8842;-58
2022/01/01 01:21:22;;;;;;;;;13.00;11.00;;;;;13.52;82.33;100578.09;5091427;28;8845;-55
2022/01/01 01:23:50;;;;;;;;;10.00;9.25;;;;;13.52;81.91;100578.09;5091328;28;8930;-56
2022/01/01 01:26:17;;;;;;;;;9.00;7.00;;;;;13.50;82.21;100586.25;5091494;28;8912;-55
2022/01/01 01:28:48;;;;;;;;;11.00;9.00;;;;;13.52;82.07;100599.50;5091622;28;8866;-55
2022/01/01 01:31:16;;;;;;;;;13.50;11.50;;;;;13.52;82.09;100596.84;5092144;28;8964;-56
2022/01/01 01:33:44;;;;;;;;;12.75;12.00;;;;;13.54;82.20;100608.25;5092911;28;8838;-56
2022/01/01 01:36:12;;;;;;;;;12.00;10.00;;;;;13.53;82.15;100604.72;5095926;28;8846;-55
2022/01/01 01:38:40;;;;;;;;;14.25;11.00;;;;;13.53;82.10;100604.72;5095244;28;8945;-55
2022/01/01 01:41:08;;;;;;;;;13.00;12.50;;;;;13.54;81.93;100605.56;5095044;28;8850;-55
2022/01/01 01:43:36;;;;;;;;;15.25;11.75;;;;;13.53;82.58;100599.34;5095322;28;8845;-56
2022/01/01 01:46:04;;;;;;;;;12.75;12.00;;;;;13.52;82.31;100594.16;5096149;28;8864;-56
2022/01/01 01:48:32;;;;;;;;;16.50;10.00;;;;;13.52;82.09;100591.47;5095456;28;8860;-56
2022/01/01 01:51:00;;;;;;;;;14.75;13.00;;;;;13.50;82.68;100588.91;5095596;28;8984;-56
2022/01/01 01:53:28;;;;;;;;;7.00;6.00;;;;;13.50;82.60;100582.69;5093737;28;8910;-55
2022/01/01 01:55:56;;;;;;;;;14.00;12.00;;;;;13.50;82.30;100591.59;5095638;28;8853;-56
2022/01/01 01:58:23;;;;;;;;;12.00;11.00;;;;;13.49;82.35;100591.72;5095585;28;8876;-56
2022/01/01 02:01:12;;;;;;;;;12.00;11.25;;;;;13.49;82.67;100594.38;5095378;28;8960;-56
2022/01/01 02:03:40;;;;;;;;;12.50;10.75;;;;;13.48;82.61;100593.56;5094390;28;8850;-56
2022/01/01 02:06:08;;;;;;;;;14.50;13.50;;;;;13.47;82.20;100599.03;5093443;28;8912;-56
2022/01/01 02:08:36;;;;;;;;;13.00;11.50;;;;;13.46;82.41;100598.19;5093355;28;8861;-56
2022/01/01 02:11:04;;;;;;;;;10.50;9.75;;;;;13.47;82.60;100601.69;5094475;28;8857;-56
2022/01/01 02:13:35;;;;;;;;;11.50;9.50;;;;;13.46;82.47;100597.31;5092634;28;8856;-56
2022/01/01 02:16:26;;;;;;;;;11.75;10.25;;;;;13.46;82.18;100591.97;5093033;28;8852;-56
2022/01/01 02:18:54;;;;;;;;;9.50;9.00;;;;;13.44;82.16;100593.94;5093617;28;8838;-55
2022/01/01 02:21:21;;;;;;;;;12.00;10.00;;;;;13.43;82.43;100593.06;5094631;28;8858;-56
2022/01/01 02:23:56;;;;;;;;;10.50;10.50;;;;;13.44;82.34;100596.59;5093492;28;8884;-56
2022/01/01 02:26:23;;;;;;;;;3.00;2.00;;;;;13.44;82.57;100593.94;5093312;28;8846;-56
2022/01/01 02:28:51;;;;;;;;;6.75;5.75;;;;;13.44;82.65;100601.97;5092101;28;8854;-55
2022/01/01 02:31:19;;;;;;;;;10.00;9.00;;;;;13.45;82.70;100603.66;5093171;28;8852;-55
2022/01/01 02:33:47;;;;;;;;;11.50;9.25;;;;;13.46;82.22;100608.03;5093812;28;8842;-55
2022/01/01 02:36:14;;;;;;;;;12.50;11.00;;;;;13.47;82.39;100615.94;5092512;28;8850;-55
2022/01/01 02:38:42;;;;;;;;;8.00;7.50;;;;;13.48;82.55;100608.75;5092122;28;8853;-56
2022/01/01 02:41:12;;;;;;;;;10.00;9.75;;;;;13.48;82.18;100606.06;5092568;28;8869;-58
2022/01/01 02:43:39;;;;;;;;;5.25;5.00;;;;;13.48;82.23;100611.41;5092193;28;8842;-57
2022/01/01 02:46:07;;;;;;;;;9.00;9.00;;;;;13.48;83.04;100604.25;5091509;28;8981;-58
2022/01/01 02:48:36;;;;;;;;;8.50;7.50;;;;;13.49;81.91;100607.75;5091884;28;8840;-57
2022/01/01 02:51:05;;;;;;;;;4.00;3.00;;;;;13.49;82.73;100599.72;5092995;28;8841;-57
2022/01/01 02:53:33;;;;;;;;;11.00;10.00;;;;;13.50;82.11;100593.41;5093072;28;8915;-57
2022/01/01 02:56:00;;;;;;;;;9.50;9.50;;;;;13.49;82.21;100591.72;5092979;28;8834;-58
2022/01/01 02:58:28;;;;;;;;;11.00;9.25;;;;;13.49;82.40;100594.38;5093296;28;8988;-55
2022/01/01 03:00:56;;;;;;;;;14.00;10.00;;;;;13.49;82.05;100587.22;5094820;28;8965;-55
2022/01/01 03:03:23;;;;;;;;;7.00;7.00;;;;;13.49;82.33;100589.91;5094135;28;8845;-55
2022/01/01 03:05:51;;;;;;;;;9.50;8.50;;;;;13.51;82.75;100584.44;5092602;28;8976;-56
2022/01/01 03:08:19;;;;;;;;;13.75;10.25;;;;;13.51;82.09;100595.13;5093501;28;8834;-56
2022/01/01 03:10:47;;;;;;;;;7.00;6.75;;;;;13.51;82.02;100595.97;5093094;28;8854;-56
2022/01/01 03:13:15;;;;;;;;;10.50;9.00;;;;;13.52;82.06;100596.84;5093374;28;8976;-56
2022/01/01 03:15:43;;;;;;;;;5.00;4.50;;;;;13.52;82.37;100603.00;5092694;28;8842;-56
2022/01/01 03:18:10;;;;;;;;;8.00;6.50;;;;;13.54;81.87;100610.94;5093594;28;8850;-57
2022/01/01 03:20:38;;;;;;;;;9.50;7.00;;;;;13.54;82.24;100611.78;5093142;28;8834;-57
2022/01/01 03:23:06;;;;;;;;;9.00;9.00;;;;;13.56;82.02;100617.88;5093378;28;8846;-56
2022/01/01 03:25:34;;;;;;;;;6.50;6.00;;;;;13.56;82.32;100608.97;5093949;28;8848;-56
2022/01/01 03:28:01;;;;;;;;;9.75;8.00;;;;;13.57;81.81;100610.66;5092754;28;8862;-56
2022/01/01 03:30:29;;;;;;;;;12.25;9.50;;;;;13.57;81.75;100614.22;5093028;28;8830;-56
2022/01/01 03:32:57;;;;;;;;;5.50;5.00;;;;;13.57;81.73;100608.84;5092446;28;8844;-57
2022/01/01 03:35:25;;;;;;;;;8.00;6.75;;;;;13.57;81.81;100608.84;5090997;28;8849;-56
2022/01/01 03:37:52;;;;;;;;;9.00;6.75;;;;;13.58;81.62;100604.38;5090806;28;8826;-56
2022/01/01 03:40:20;;;;;;;;;6.50;6.25;;;;;13.58;82.05;100615.06;5090619;28;8842;-56
2022/01/01 03:42:48;;;;;;;;;7.00;6.50;;;;;13.59;81.75;100619.44;5092502;28;8842;-57
2022/01/01 03:45:16;;;;;;;;;9.00;8.50;;;;;13.60;81.63;100621.97;5091773;28;8853;-56
2022/01/01 03:47:43;;;;;;;;;7.00;7.00;;;;;13.61;81.92;100620.16;5092704;28;8838;-56
2022/01/01 03:50:11;;;;;;;;;8.50;6.50;;;;;13.61;81.77;100613.00;5092218;28;9488;-56
2022/01/01 03:52:39;;;;;;;;;9.00;9.00;;;;;13.61;81.72;100614.81;5092006;28;8857;-56
2022/01/01 03:55:07;;;;;;;;;9.25;8.00;;;;;13.59;81.59;100606.91;5093089;28;8872;-56
2022/01/01 03:57:34;;;;;;;;;6.00;5.50;;;;;13.59;81.89;100606.91;5091370;28;9537;-56
2022/01/01 04:00:02;;;;;;;;;8.50;5.00;;;;;13.60;81.86;100613.13;5092611;28;8856;-56
2022/01/01 04:02:29;;;;;;;;;12.50;11.00;;;;;13.59;81.28;100606.91;5090911;28;8845;-57
2022/01/01 04:04:58;;;;;;;;;6.00;5.75;;;;;13.59;81.67;100598.03;5092891;28;8854;-56
2022/01/01 04:07:25;;;;;;;;;11.00;8.75;;;;;13.58;81.83;100596.34;5092922;28;9523;-56
2022/01/01 04:09:53;;;;;;;;;11.50;9.25;;;;;13.57;81.30;100606.19;5092356;28;8846;-58
2022/01/01 04:12:20;;;;;;;;;12.75;12.00;;;;;13.57;81.83;100599.97;5091075;28;8976;-56
2022/01/01 04:14:49;;;;;;;;;9.00;7.00;;;;;13.57;81.47;100602.63;5093043;28;8837;-56
2022/01/01 04:17:16;;;;;;;;;8.25;7.50;;;;;13.56;81.38;100604.47;5092255;28;9567;-56
2022/01/01 04:19:44;;;;;;;;;6.75;6.75;;;;;13.56;81.71;100608.97;5092538;28;8834;-56
2022/01/01 04:22:11;;;;;;;;;7.00;6.50;;;;;13.56;81.16;100611.66;5091961;28;9117;-56
2022/01/01 04:24:39;;;;;;;;;5.00;4.00;;;;;13.56;81.36;100603.63;5092922;28;8853;-56
2022/01/01 04:27:07;;;;;;;;;6.00;4.50;;;;;13.56;81.05;100598.25;5092515;28;8858;-56
2022/01/01 04:29:35;;;;;;;;;7.50;6.50;;;;;13.55;81.51;100583.19;5092815;28;8834;-56
2022/01/01 04:32:03;;;;;;;;;12.75;12.75;;;;;13.55;81.39;100585.88;5091028;28;8864;-56
2022/01/01 04:34:31;;;;;;;;;9.75;9.00;;;;;13.53;81.78;100572.59;5091105;28;8854;-56
2022/01/01 04:37:02;;;;;;;;;9.25;9.25;;;;;13.54;81.37;100577.00;5091786;28;8842;-56
2022/01/01 04:39:29;;;;;;;;;11.50;9.25;;;;;13.54;81.45;100586.84;5071371;28;8852;-56
2022/01/01 04:41:57;;;;;;;;;11.50;9.00;;;;;13.55;81.53;100588.53;5070946;28;9859;-57
2022/01/01 04:44:25;;;;;;;;;9.75;9.50;;;;;13.53;81.60;100577.94;5071284;28;8851;-56
2022/01/01 04:46:53;;;;;;;;;6.00;6.00;;;;;13.53;81.34;100594.00;5071506;28;8962;-56
2022/01/01 04:49:22;;;;;;;;;9.25;8.50;;;;;13.54;81.59;100590.38;5071372;28;9885;-56
2022/01/01 04:51:50;;;;;;;;;8.00;7.00;;;;;13.55;81.44;100601.91;5069757;28;8860;-56
2022/01/01 04:54:18;;;;;;;;;8.50;7.50;;;;;13.56;81.59;100595.59;5070685;28;8844;-56
2022/01/01 04:56:47;;;;;;;;;10.50;9.00;;;;;13.57;81.52;100589.25;5070416;28;8868;-56
2022/01/01 04:59:15;;;;;;;;;7.75;7.00;;;;;13.57;81.54;100592.78;5071873;28;8840;-56
2022/01/01 05:01:42;;;;;;;;;7.00;7.00;;;;;13.59;81.35;100598.03;5070984;28;8836;-56
2022/01/01 05:04:11;;;;;;;;;5.00;5.00;;;;;13.59;80.98;100584.66;5072380;28;8847;-56
2022/01/01 05:06:38;;;;;;;;;5.25;5.00;;;;;13.59;81.53;100593.50;5070943;28;9506;-56
2022/01/01 05:09:06;;;;;;;;;6.75;6.00;;;;;13.59;81.25;100590.84;5086568;28;8826;-56
2022/01/01 05:11:34;;;;;;;;;9.50;9.00;;;;;13.58;81.41;100591.81;5090097;28;8876;-56
2022/01/01 05:14:02;;;;;;;;;6.50;6.25;;;;;13.57;81.02;100581.22;5090797;28;8842;-56
2022/01/01 05:16:29;;;;;;;;;6.00;5.00;;;;;13.57;81.27;100579.41;5090924;28;8838;-56
2022/01/01 05:18:57;;;;;;;;;6.50;6.50;;;;;13.56;81.45;100592.91;5091246;28;8834;-56
2022/01/01 05:21:27;;;;;;;;;6.50;5.50;;;;;13.54;81.05;100584.16;5090443;28;8846;-56
2022/01/01 05:23:55;;;;;;;;;5.50;5.00;;;;;13.53;81.32;100595.84;5092000;28;8850;-56
2022/01/01 05:26:23;;;;;;;;;1.50;1.00;;;;;13.52;81.34;100608.38;5090453;28;8980;-56
2022/01/01 05:28:51;;;;;;;;;6.25;5.50;;;;;13.50;81.17;100604.97;5089773;28;8846;-56
2022/01/01 05:31:19;;;;;;;;;6.75;6.50;;;;;13.50;81.20;100614.81;5089622;28;9004;-56
2022/01/01 05:33:47;;;;;;;;;5.50;5.50;;;;;13.50;81.01;100612.13;5090878;28;8862;-56
2022/01/01 05:36:15;;;;;;;;;4.50;4.50;;;;;13.50;81.41;100622.84;5089913;28;8989;-56
2022/01/01 05:38:43;;;;;;;;;6.00;6.00;;;;;13.51;81.20;100617.38;5091235;28;8853;-56
2022/01/01 05:41:11;;;;;;;;;2.50;1.00;;;;;13.52;80.88;100621.75;5089415;28;8850;-56
2022/01/01 05:43:38;;;;;;;;;5.50;4.00;;;;;13.53;80.86;100626.13;5090151;28;8915;-56
2022/01/01 05:46:06;;;;;;;;;4.00;3.00;;;;;13.54;81.22;100635.88;5091493;28;8922;-56
2022/01/01 05:48:34;;;;;;;;;4.00;3.75;;;;;13.54;81.48;100637.69;5089711;28;9515;-56
2022/01/01 05:51:03;;;;;;;;;7.00;5.50;;;;;13.54;80.62;100645.72;5089081;28;8845;-56
2022/01/01 05:53:31;;;;;;;;;5.50;5.50;;;;;13.55;80.56;100639.38;5069651;28;8983;-56
2022/01/01 05:55:58;;;;;;;;;3.00;3.00;;;;;13.55;80.80;100636.72;5069954;28;8898;-57
2022/01/01 05:58:26;;;;;;;;;6.50;6.25;;;;;13.55;80.59;100640.25;5070081;28;8874;-56
2022/01/01 06:00:54;;;;;;;;;4.00;3.25;;;;;13.54;80.47;100649.25;5070072;28;8990;-57
2022/01/01 06:03:21;;;;;;;;;6.25;6.00;;;;;13.56;81.00;100654.47;5069668;28;9510;-57
2022/01/01 06:05:52;;;;;;;;;6.00;5.50;;;;;13.55;80.73;100648.28;5070102;28;8828;-57
2022/01/01 06:08:19;;;;;;;;;2.00;1.00;;;;;13.58;80.93;100650.69;5070440;28;8860;-57
2022/01/01 06:10:47;;;;;;;;;0.75;0.75;;;;;13.56;81.03;100644.63;5070836;28;8860;-57
2022/01/01 06:13:14;;;;;;;;;3.25;3.25;;;;;13.57;80.66;100642.78;5087674;28;8842;-56
2022/01/01 06:15:43;;;;;;;;;5.00;4.00;;;;;13.56;80.54;100633.91;5090334;28;8846;-57
2022/01/01 06:18:11;;;;;;;;;6.00;4.00;;;;;13.56;80.22;100636.59;5089570;28;8846;-57
2022/01/01 06:20:39;;;;;;;;;3.00;3.00;;;;;13.56;80.77;100635.72;5092540;28;9797;-57
2022/01/01 06:23:07;;;;;;;;;2.50;1.00;;;;;13.56;80.72;100641.94;5093518;28;8850;-56
2022/01/01 06:25:34;;;;;;;;;4.00;4.00;;;;;13.57;80.70;100632.06;5093608;28;8852;-57
2022/01/01 06:28:02;;;;;;;;;3.25;3.25;;;;;13.57;80.25;100638.28;5093731;28;8861;-57
2022/01/01 06:30:33;;;;;;;;;3.50;3.50;;;;;13.55;80.29;100634.91;5093131;28;8850;-56
2022/01/01 06:33:02;;;;;;;;;7.25;3.75;;;;;13.54;80.51;100645.72;5093800;28;8858;-57
2022/01/01 06:35:30;;;;;;;;;7.75;4.00;;;;;13.54;80.32;100646.59;5093019;28;8845;-57
2022/01/01 06:37:57;;;;;;;;;4.25;3.75;;;;;13.54;80.61;100653.75;5092959;28;8865;-57
2022/01/01 06:40:25;;;;;;;;;2.50;2.50;;;;;13.54;80.75;100651.06;5093811;28;8846;-57
2022/01/01 06:42:53;;;;;;;;;1.00;1.00;;;;;13.54;80.56;100649.25;5092513;28;8830;-57
2022/01/01 06:45:21;;;;;;;;;3.25;2.00;;;;;13.54;80.32;100657.28;5094594;28;9484;-57
2022/01/01 06:47:48;;;;;;;;;4.00;4.00;;;;;13.54;80.76;100659.97;5093998;28;8849;-57
2022/01/01 06:50:16;;;;;;;;;3.00;3.00;;;;;13.55;80.40;100674.19;5093253;28;8862;-57
2022/01/01 06:52:44;;;;;;;;;4.50;4.50;;;;;13.54;80.58;100673.34;5093144;28;9525;-57
2022/01/01 06:55:12;;;;;;;;;9.00;6.00;;;;;13.54;80.39;100672.47;5093613;28;8814;-57
2022/01/01 06:57:40;;;;;;;;;4.00;3.50;;;;;13.55;80.18;100676.84;5094057;28;8865;-57
2022/01/01 07:00:07;;;;;;;;;5.75;4.00;;;;;13.54;80.71;100678.69;5094347;28;8972;-57
2022/01/01 07:02:35;;;;;;;;;3.75;3.75;;;;;13.54;80.61;100683.19;5092471;28;8846;-57
2022/01/01 07:05:03;;;;;;;;;4.00;3.75;;;;;13.53;80.69;100676.13;5093571;28;8864;-57
2022/01/01 07:07:31;;;;;;;;;6.50;6.00;;;;;13.52;80.32;100674.44;5092812;28;8868;-56
2022/01/01 07:09:59;;;;;;;;;4.00;4.00;;;;;13.51;80.35;100667.38;5092998;28;8846;-57
2022/01/01 07:12:26;;;;;;;;;4.00;4.00;;;;;13.50;80.13;100673.69;5092489;28;8845;-57
2022/01/01 07:14:54;;;;;;;;;5.50;4.00;;;;;13.48;80.61;100675.63;5074032;28;8856;-57
2022/01/01 07:17:22;;;;;;;;;5.50;3.75;;;;;13.46;80.56;100682.94;5072917;28;8848;-57
2022/01/01 07:19:50;;;;;;;;;4.00;3.00;;;;;13.46;80.68;100682.94;5073885;28;8881;-57
2022/01/01 07:22:17;;;;;;;;;5.00;4.00;;;;;13.46;80.58;100682.94;5073140;28;8848;-57
2022/01/01 07:24:45;;;;;;;;;1.50;1.00;;;;;13.45;80.51;100684.75;5072655;28;8859;-56
2022/01/01 07:27:13;;;;;;;;;3.00;2.50;;;;;13.46;80.30;100674.91;5072749;28;8866;-57
2022/01/01 07:29:41;;;;;;;;;3.25;3.25;;;;;13.46;80.70;100673.09;5073097;28;8868;-57
2022/01/01 07:32:08;;;;;;;;;4.00;4.00;;;;;13.46;80.03;100675.78;5070374;28;8909;-57
2022/01/01 07:34:36;;;;;;;;;5.00;5.00;;;;;13.48;80.14;100671.16;5073228;28;8847;-57
2022/01/01 07:37:04;;;;;;;;;4.00;3.50;;;;;13.47;80.27;100673.94;5071586;28;8860;-57
2022/01/01 07:39:32;;;;;;;;;5.50;5.50;;;;;13.47;79.54;100668.59;5073157;28;8836;-57
2022/01/01 07:41:59;;;;;;;;;4.50;4.00;;;;;13.45;80.13;100676.72;5078084;28;8865;-56
2022/01/01 07:44:27;;;;;;;;;6.00;4.50;;;;;13.45;79.87;100683.91;5092321;28;9496;-57
2022/01/01 07:46:56;;;;;;;;;3.00;3.00;;;;;13.44;80.32;100690.25;5091818;28;8850;-57
2022/01/01 07:49:23;;;;;;;;;4.00;3.75;;;;;13.44;80.08;100684.91;5092404;28;8963;-57
2022/01/01 07:51:51;;;;;;;;;3.75;3.75;;;;;13.44;80.07;100690.25;5092485;28;8874;-56
2022/01/01 07:54:19;;;;;;;;;4.00;4.00;;;;;13.44;79.88;100692.94;5092514;28;8876;-57
2022/01/01 07:56:47;;;;;;;;;6.25;4.00;;;;;13.43;79.82;100692.06;5091848;28;8866;-57
2022/01/01 07:59:15;;;;;;;;;5.50;3.00;;;;;13.44;80.09;100699.09;5092522;28;8830;-57
2022/01/01 08:01:43;;;;;;;;;0.75;0.75;;;;;13.44;79.85;100700.94;5092353;28;8854;-57
2022/01/01 08:04:11;;;;;;;;;1.00;1.00;;;;;13.43;80.02;100700.09;5092208;28;8964;-57
2022/01/01 08:06:39;;;;;;;;;3.00;2.00;;;;;13.46;79.88;100696.31;5091092;28;8872;-57
2022/01/01 08:09:06;;;;;;;;;3.50;3.50;;;;;13.45;80.34;100683.91;5093537;28;8860;-57
2022/01/01 08:11:34;;;;;;;;;2.00;1.50;;;;;13.46;80.46;100688.28;5091676;28;8846;-57
2022/01/01 08:14:02;;;;;;;;;3.00;3.00;;;;;13.48;80.10;100697.03;5091325;28;8846;-57
2022/01/01 08:16:29;;;;;;;;;5.00;4.00;;;;;13.48;79.60;100697.91;5092342;28;8846;-57
2022/01/01 08:18:57;;;;;;;;;7.00;4.00;;;;;13.50;79.83;100716.50;5092385;28;8830;-57
2022/01/01 08:21:25;;;;;;;;;4.00;4.00;;;;;13.53;79.68;100722.47;5091325;28;8834;-57
2022/01/01 08:23:53;;;;;;;;;4.00;4.00;;;;;13.55;79.73;100700.94;5091975;28;8849;-57
2022/01/01 08:26:20;;;;;;;;;4.00;3.50;;;;;13.56;79.20;100706.19;5091458;28;8853;-57
2022/01/01 08:28:48;;;;;;;;;4.00;4.00;;;;;13.56;79.38;100700.81;5091090;28;8838;-57
2022/01/01 08:31:16;;;;;;;;;1.50;1.50;;;;;13.57;79.19;100696.31;5090850;28;9515;-57
2022/01/01 08:33:44;;;;;;;;;4.00;4.00;;;;;13.58;79.26;100695.34;5091409;28;8972;-57
2022/01/01 08:36:13;;;;;;;;;4.50;4.50;;;;;13.59;79.63;100699.72;5089959;28;9091;-57
2022/01/01 08:38:41;;;;;;;;;4.00;4.00;;;;;13.60;79.32;100709.47;5091707;28;8899;-57
2022/01/01 08:41:08;;;;;;;;;2.00;2.00;;;;;13.62;78.94;100705.69;5090874;28;9308;-57
2022/01/01 08:43:36;;;;;;;;;2.50;2.50;;;;;13.64;79.54;100718.94;5091925;28;8877;-57
2022/01/01 08:46:04;;;;;;;;;3.50;2.00;;;;;13.64;79.24;100709.09;5092759;28;8854;-57
2022/01/01 08:48:32;;;;;;;;;2.50;2.50;;;;;13.65;79.21;100710.78;5091342;28;8872;-57
2022/01/01 08:50:59;;;;;;;;;3.00;2.50;;;;;13.66;79.32;100712.47;5090856;28;8875;-57
2022/01/01 08:53:27;;;;;;;;;3.00;3.00;;;;;13.68;79.12;100720.41;5091639;28;8872;-56
2022/01/01 08:55:55;;;;;;;;;1.50;1.00;;;;;13.70;78.79;100715.78;5091559;28;8838;-57
2022/01/01 08:58:22;;;;;;;;;3.25;3.00;;;;;13.73;78.96;100720.91;5091073;28;8842;-57
2022/01/01 09:00:53;;;;;;;;;0.75;0.75;;;;;13.74;78.74;100719.91;5090670;28;8846;-57
2022/01/01 09:03:21;;;;;;;;;2.25;2.00;;;;;13.75;79.11;100729.66;5091424;28;8900;-57
2022/01/01 09:05:49;;;;;;;;;1.00;1.00;;;;;13.76;78.88;100728.66;5090479;28;8877;-57
2022/01/01 09:08:32;;;;;;;;;1.00;0.00;;;;;13.78;78.61;100727.56;5091021;28;8842;-57
2022/01/01 09:10:59;;;;;;;;;3.00;3.00;;;;;13.79;78.63;100721.25;5090128;28;8950;-57
2022/01/01 09:13:27;;;;;;;;;3.00;1.50;;;;;13.81;78.48;100723.81;5070360;28;8860;-57
2022/01/01 09:15:55;;;;;;;;;6.00;3.00;;;;;13.83;78.46;100724.53;5069719;28;9546;-57
2022/01/01 09:18:23;;;;;;;;;3.00;3.00;;;;;13.84;78.62;100724.41;5070817;28;8840;-57
2022/01/01 09:20:50;;;;;;;;;3.00;0.50;;;;;13.87;78.32;100737.53;5069960;28;8832;-57
2022/01/01 09:23:18;;;;;;;;;2.50;2.50;;;;;13.91;78.32;100735.47;5069750;28;8852;-57
2022/01/01 09:25:46;;;;;;;;;0.00;0.00;;;;;13.94;78.55;100740.56;5069788;28;8863;-57
2022/01/01 09:28:13;;;;;;;;;1.00;1.00;;;;;13.97;78.03;100738.50;5071141;28;8860;-57
2022/01/01 09:30:41;;;;;;;;;0.00;0.00;;;;;14.04;77.80;100744.22;5067806;28;8844;-57
2022/01/01 09:33:10;;;;;;;;;2.50;1.00;;;;;14.08;77.98;100745.66;5068257;28;8844;-57
2022/01/01 09:35:38;;;;;;;;;1.00;1.00;;;;;14.13;77.34;100740.78;5069724;28;8852;-57
2022/01/01 09:38:05;;;;;;;;;1.00;1.00;;;;;14.21;77.33;100741.06;5070294;28;8887;-57
2022/01/01 09:40:33;;;;;;;;;0.00;0.00;;;;;14.28;77.09;100742.25;5068311;28;8868;-57
2022/01/01 09:43:00;;;;;;;;;1.00;1.00;;;;;14.33;77.23;100740.06;5086203;28;8846;-57
2022/01/01 09:45:28;;;;;;;;;4.00;4.00;;;;;14.38;77.16;100733.34;5089537;28;8968;-57
2022/01/01 09:47:56;;;;;;;;;2.50;2.00;;;;;14.41;76.40;100730.38;5089585;28;8842;-58
2022/01/01 09:50:24;;;;;;;;;0.00;0.00;;;;;14.43;76.07;100725.75;5090327;28;9706;-57
2022/01/01 09:52:51;;;;;;;;;1.40;1.00;;;;;14.44;76.10;100723.94;5089088;28;8972;-57
2022/01/01 09:55:19;;;;;;;;;1.50;1.50;;;;;14.47;75.71;100727.22;5092073;28;9644;-58
2022/01/01 09:57:48;;;;;;;;;1.50;1.50;;;;;14.53;75.60;100733.88;5093643;28;8878;-57
2022/01/01 10:00:15;;;;;;;;;0.00;0.00;;;;;14.67;74.90;100730.91;5093459;28;9507;-57
2022/01/01 10:02:43;;;;;;;;;1.00;1.00;;;;;14.86;74.45;100717.66;5093588;28;8834;-58
2022/01/01 10:05:11;;;;;;;;;3.40;2.20;;;;;15.13;73.82;100709.91;5094885;28;8876;-57
2022/01/01 10:07:39;;;;;;;;;2.60;1.80;;;;;15.42;73.11;100705.59;5091924;28;8842;-58
2022/01/01 10:10:06;;;;;;;;;1.00;1.00;;;;;15.77;72.23;100700.66;5092488;28;8849;-57
2022/01/01 10:12:34;;;;;;;;;0.00;0.00;;;;;16.06;71.04;100696.19;5092586;28;8846;-58
2022/01/01 10:15:03;;;;;;;;;1.80;1.80;;;;;16.15;71.12;100711.50;5094040;28;8869;-57
2022/01/01 10:17:34;;;;;;;;;1.00;1.00;;;;;16.01;71.12;100718.09;5092852;28;8830;-58
2022/01/01 10:20:01;;;;;;;;;1.00;1.00;;;;;15.76;71.68;100721.28;5093853;28;8854;-58
2022/01/01 10:22:29;;;;;;;;;1.00;1.00;;;;;15.61;72.07;100719.13;5093740;28;8861;-58
2022/01/01 10:27:45;;;;;;;;;1.00;1.00;;;;;15.45;72.35;100716.06;5094277;28;8885;-57
2022/01/01 10:30:13;;;;;;;;;2.20;2.20;;;;;15.37;72.21;100718.56;5093088;28;8850;-57
2022/01/01 10:32:41;;;;;;;;;3.20;3.00;;;;;15.28;72.39;100713.97;5092945;28;8882;-57
2022/01/01 10:35:09;;;;;;;;;1.00;0.60;;;;;15.19;72.55;100707.56;5093013;28;8860;-57
2022/01/01 10:37:36;;;;;;;;;1.00;1.00;;;;;15.10;73.12;100702.16;5091795;28;8839;-57
2022/01/01 10:40:08;;;;;;;;;1.40;1.40;;;;;15.06;72.56;100701.56;5091534;28;8943;-58
2022/01/01 10:42:36;;;;;;;;;2.20;2.20;;;;;15.09;72.48;100697.75;5091960;28;8842;-57
2022/01/01 10:45:04;;;;;;;;;1.80;1.80;;;;;15.14;71.96;100693.69;5091920;28;8880;-58
2022/01/01 10:47:33;;;;;;;;;2.60;2.60;;;;;15.21;72.35;100686.81;5091172;28;8951;-57
2022/01/01 10:50:15;;;;;;;;;1.00;0.00;;;;;15.30;72.01;100695.88;5093400;28;8950;-57
2022/01/01 10:52:45;;;;;;;;;2.20;2.20;;;;;15.41;71.76;100699.38;5091789;28;8850;-57
2022/01/01 10:55:14;;;;;;;;;1.00;1.00;;;;;15.42;71.54;100703.78;5093877;28;8842;-57
2022/01/01 10:57:42;;;;;;;;;0.00;0.00;;;;;15.36;71.46;100700.75;5091133;28;8882;-58
2022/01/01 11:00:09;;;;;;;;;0.60;0.60;;;;;15.29;71.88;100695.06;5092396;28;8980;-58
2022/01/01 11:02:37;;;;;;;;;0.40;0.40;;;;;15.24;71.54;100702.63;5090194;28;8834;-57
2022/01/01 11:05:05;;;;;;;;;1.40;1.40;;;;;15.22;72.02;100706.44;5089150;28;8873;-57
2022/01/01 11:07:32;;;;;;;;;0.80;0.80;;;;;15.23;71.88;100695.56;5089371;28;8865;-57
2022/01/01 11:10:00;;;;;;;;;3.00;3.00;;;;;15.26;71.38;100692.63;5091024;28;8837;-58
2022/01/01 11:12:28;;;;;;;;;0.00;0.00;;;;;15.29;71.20;100688.81;5089839;28;8822;-57
2022/01/01 11:14:56;;;;;;;;;1.00;1.00;;;;;15.35;70.89;100683.81;5091670;28;8861;-55
2022/01/01 11:17:24;;;;;;;;;1.00;1.00;;;;;15.47;71.11;100665.78;5090680;28;9581;-56
2022/01/01 11:19:51;;;;;;;;;1.00;0.40;;;;;15.69;70.26;100670.97;5089880;28;8866;-55
2022/01/01 11:22:19;;;;;;;;;1.00;1.00;;;;;15.88;69.93;100673.69;5092254;28;8830;-55
2022/01/01 11:24:47;;;;;;;;;1.00;1.00;;;;;15.98;69.78;100669.16;5090984;28;8830;-58
2022/01/01 11:27:15;;;;;;;;;0.60;0.60;;;;;16.02;69.58;100662.53;5089973;28;9538;-56
2022/01/01 11:29:49;;;;;;;;;1.00;0.60;;;;;16.04;69.55;100657.88;5090860;28;8868;-55
2022/01/01 11:32:16;;;;;;;;;0.80;0.80;;;;;16.05;70.08;100654.19;5090379;28;8838;-55
2022/01/01 11:34:44;;;;;;;;;1.00;0.00;;;;;16.08;69.98;100645.88;5090536;28;8862;-55
2022/01/01 11:37:12;;;;;;;;;1.00;1.00;;;;;16.10;69.35;100651.94;5091850;28;8854;-55